Latest METARs, TAFs and NOTAMs for ETSI


---------------------------------------------------------------------------
	(OBSERVATIONS)
ETSI 232020Z 27002KT 1200 R25////// BR OVC002 M10/M12 Q1024 AMB=
ETSI 231920Z AUTO VRB01KT 1100 // ////// M10/M11 Q1024 ///=
ETSI 231820Z AUTO 26003KT 0900 // ////// M10/M11 Q1024 ///=
---------------------------------------------------------------------------
	(FC)
TAF ETSI 231415Z 2315/2324 VRB03KT 2000 BR OVC004
     TEMPO 2315/2320 VRB01KT 1000 -SN OVC003
     BECMG 2318/2320 VRB01KT 0400 FZFG VV001=
---------------------------------------------------------------------------
	(TERMINAL AREA FORECAST)
COR ETSI 231443Z 2315/2324 VRB03KT 1500 BR   OVC004
    TEMPO  2315/2324 VRB01KT 0400 FZFG VV001
    CANCEL 1620=
---------------------------------------------------------------------------
	(NOTAMS)


ETSI P0189/17 RWY25L CABLE NO.1 AND NO.3 OUT OF SERVICE. 09 JAN
    11:02 2017 UNTIL 10 FEB 12:00 2017. CREATED: 09 JAN 11:07
    2017

ETSI P0190/17 PAPI 25L LEFT SIDE UNRELIABLE. 09 JAN 11:04 2017
    UNTIL 10 FEB 12:00 2017. CREATED: 09 JAN 11:09 2017

ETSI P0191/17 RWY25R CABLE NO.2 OUT OF SERVICE. 09 JAN 11:06
    2017 UNTIL 10 FEB 12:00 2017. CREATED: 09 JAN 11:10 2017

ETSI P7934/16 PAPI 25R RIGHT SIDE NOT FLIGHT CHECKED. 29 NOV
    13:23 2016 UNTIL 24 FEB 13:00 2017. CREATED: 29 NOV 13:32
    2016

ETSI P7935/16 TACAN APCH RWY07R SUSPENDED. 29 NOV 13:24 2016
    UNTIL 24 FEB 13:00 2017. CREATED: 29 NOV 13:33 2016

ETSI P7936/16 PAR RWY25L/07R OUT OF SERVICE. 29 NOV 13:25 2016
    UNTIL 24 FEB 13:00 2017. CREATED: 29 NOV 13:35 2016

ETSI P7937/16 PAR RWY25R/07L OUT OF SERVICE. 29 NOV 13:26 2016
    UNTIL 24 FEB 13:00 2017. CREATED: 29 NOV 13:36 2016

ETSI P7938/16 NO SRA POSSIBLE. 29 NOV 13:27 2016 UNTIL 24 FEB
    13:00 2017. CREATED: 29 NOV 13:37 2016

ETSI P7939/16 LIMITED RADAR COVERAGE BELOW 5000FT MSL. DETAILED
    INFORMATION BY INGO RADAR. 29 NOV 13:27 2016 UNTIL 24 FEB
    13:00 2017. CREATED: 29 NOV 13:38 2016

ETSI P8437/16 AD MIL OPENING HOURS CHANGED TO: MON-THU 0800-1500
    FR 0800-1200. 09 JAN 08:00 2017 UNTIL 24 MAR 12:00 2017.
    CREATED: 19 DEC 07:58 2016

---------------------------------------------------------------------------